sensor_id;sensor_type;location;lat;lon;timestamp;pressure;altitude;pressure_sealevel;temperature
71630;BMP280;59479;51.902;8.212;2023-07-13T00:00:13;100711.72;;;22.06
71630;BMP280;59479;51.902;8.212;2023-07-13T00:02:42;100706.72;;;22.03
71630;BMP280;59479;51.902;8.212;2023-07-13T00:05:08;100715.59;;;21.96
71630;BMP280;59479;51.902;8.212;2023-07-13T00:07:34;100714.75;;;21.96
71630;BMP280;59479;51.902;8.212;2023-07-13T00:10:00;100712.69;;;21.86
71630;BMP280;59479;51.902;8.212;2023-07-13T00:12:37;100721.06;;;21.89
71630;BMP280;59479;51.902;8.212;2023-07-13T00:15:26;100722.34;;;21.79
71630;BMP280;59479;51.902;8.212;2023-07-13T00:17:53;100712.69;;;21.86
71630;BMP280;59479;51.902;8.212;2023-07-13T00:20:20;100723.31;;;21.77
71630;BMP280;59479;51.902;8.212;2023-07-13T00:22:51;100730.59;;;21.86
71630;BMP280;59479;51.902;8.212;2023-07-13T00:25:17;100713.81;;;21.79
71630;BMP280;59479;51.902;8.212;2023-07-13T00:27:43;100720.44;;;21.84
71630;BMP280;59479;51.902;8.212;2023-07-13T00:30:10;100728.16;;;21.83
71630;BMP280;59479;51.902;8.212;2023-07-13T00:32:35;100718.75;;;21.83
71630;BMP280;59479;51.902;8.212;2023-07-13T00:35:01;100721.59;;;21.77
71630;BMP280;59479;51.902;8.212;2023-07-13T00:37:28;100718.19;;;21.77
71630;BMP280;59479;51.902;8.212;2023-07-13T00:39:53;100736.94;;;21.77
71630;BMP280;59479;51.902;8.212;2023-07-13T00:42:19;100736.38;;;21.71
71630;BMP280;59479;51.902;8.212;2023-07-13T00:47:36;100727.91;;;21.69
71630;BMP280;59479;51.902;8.212;2023-07-13T00:50:02;100732.56;;;21.61
71630;BMP280;59479;51.902;8.212;2023-07-13T00:52:28;100728.97;;;21.65
71630;BMP280;59479;51.902;8.212;2023-07-13T00:54:54;100731.00;;;21.57
71630;BMP280;59479;51.902;8.212;2023-07-13T00:57:21;100743.59;;;21.61
71630;BMP280;59479;51.902;8.212;2023-07-13T00:59:50;100742.91;;;21.58
71630;BMP280;59479;51.902;8.212;2023-07-13T01:02:17;100736.81;;;21.60
71630;BMP280;59479;51.902;8.212;2023-07-13T01:04:42;100745.81;;;21.51
71630;BMP280;59479;51.902;8.212;2023-07-13T01:07:09;100739.13;;;21.47
71630;BMP280;59479;51.902;8.212;2023-07-13T01:09:35;100742.63;;;21.46
71630;BMP280;59479;51.902;8.212;2023-07-13T01:12:01;100736.72;;;21.44
71630;BMP280;59479;51.902;8.212;2023-07-13T01:14:26;100736.91;;;21.39
71630;BMP280;59479;51.902;8.212;2023-07-13T01:16:52;100736.31;;;21.33
71630;BMP280;59479;51.902;8.212;2023-07-13T01:19:38;100734.56;;;21.33
71630;BMP280;59479;51.902;8.212;2023-07-13T01:22:24;100726.09;;;21.33
71630;BMP280;59479;51.902;8.212;2023-07-13T01:24:52;100725.00;;;21.38
71630;BMP280;59479;51.902;8.212;2023-07-13T01:27:23;100728.44;;;21.37
71630;BMP280;59479;51.902;8.212;2023-07-13T01:29:50;100730.09;;;21.38
71630;BMP280;59479;51.902;8.212;2023-07-13T01:32:20;100726.78;;;21.36
71630;BMP280;59479;51.902;8.212;2023-07-13T01:34:50;100729.03;;;21.44
71630;BMP280;59479;51.902;8.212;2023-07-13T01:37:16;100724.88;;;21.41
71630;BMP280;59479;51.902;8.212;2023-07-13T01:39:41;100727.41;;;21.41
71630;BMP280;59479;51.902;8.212;2023-07-13T01:42:07;100722.44;;;21.38
71630;BMP280;59479;51.902;8.212;2023-07-13T01:44:33;100713.72;;;21.42
71630;BMP280;59479;51.902;8.212;2023-07-13T01:46:58;100726.22;;;21.30
71630;BMP280;59479;51.902;8.212;2023-07-13T01:49:23;100719.28;;;21.32
71630;BMP280;59479;51.902;8.212;2023-07-13T01:51:49;100729.75;;;21.27
71630;BMP280;59479;51.902;8.212;2023-07-13T01:54:14;100720.16;;;21.32
71630;BMP280;59479;51.902;8.212;2023-07-13T01:56:39;100723.47;;;21.34
71630;BMP280;59479;51.902;8.212;2023-07-13T01:59:07;100721.59;;;21.38
71630;BMP280;59479;51.902;8.212;2023-07-13T02:01:32;100728.00;;;21.28
71630;BMP280;59479;51.902;8.212;2023-07-13T02:03:57;100730.50;;;21.29
71630;BMP280;59479;51.902;8.212;2023-07-13T02:06:23;100730.63;;;21.26
71630;BMP280;59479;51.902;8.212;2023-07-13T02:08:49;100740.03;;;21.26
71630;BMP280;59479;51.902;8.212;2023-07-13T02:11:14;100736.13;;;21.17
71630;BMP280;59479;51.902;8.212;2023-07-13T02:13:40;100738.41;;;21.23
71630;BMP280;59479;51.902;8.212;2023-07-13T02:16:05;100734.44;;;21.16
71630;BMP280;59479;51.902;8.212;2023-07-13T02:18:31;100735.28;;;21.17
71630;BMP280;59479;51.902;8.212;2023-07-13T02:20:57;100732.88;;;21.14
71630;BMP280;59479;51.902;8.212;2023-07-13T02:23:22;100741.34;;;21.14
71630;BMP280;59479;51.902;8.212;2023-07-13T02:25:47;100739.31;;;21.03
71630;BMP280;59479;51.902;8.212;2023-07-13T02:28:13;100735.34;;;20.96
71630;BMP280;59479;51.902;8.212;2023-07-13T02:30:38;100738.00;;;20.93
71630;BMP280;59479;51.902;8.212;2023-07-13T02:33:04;100735.34;;;20.96
71630;BMP280;59479;51.902;8.212;2023-07-13T02:35:30;100730.22;;;20.96
71630;BMP280;59479;51.902;8.212;2023-07-13T02:37:55;100739.97;;;20.86
71630;BMP280;59479;51.902;8.212;2023-07-13T02:40:21;100738.50;;;20.81
71630;BMP280;59479;51.902;8.212;2023-07-13T02:42:46;100739.25;;;20.83
71630;BMP280;59479;51.902;8.212;2023-07-13T02:45:11;100737.91;;;20.74
71630;BMP280;59479;51.902;8.212;2023-07-13T02:47:40;100736.16;;;20.75
71630;BMP280;59479;51.902;8.212;2023-07-13T02:50:05;100730.25;;;20.74
71630;BMP280;59479;51.902;8.212;2023-07-13T02:52:31;100741.44;;;20.70
71630;BMP280;59479;51.902;8.212;2023-07-13T02:54:56;100736.72;;;20.60
71630;BMP280;59479;51.902;8.212;2023-07-13T02:57:21;100741.03;;;20.60
71630;BMP280;59479;51.902;8.212;2023-07-13T02:59:47;100741.91;;;20.59
71630;BMP280;59479;51.902;8.212;2023-07-13T03:02:12;100751.59;;;20.51
71630;BMP280;59479;51.902;8.212;2023-07-13T03:04:38;100748.44;;;20.44
71630;BMP280;59479;51.902;8.212;2023-07-13T03:07:04;100749.56;;;20.37
71630;BMP280;59479;51.902;8.212;2023-07-13T03:09:31;100751.25;;;20.37
71630;BMP280;59479;51.902;8.212;2023-07-13T03:11:57;100748.66;;;20.38
71630;BMP280;59479;51.902;8.212;2023-07-13T03:14:23;100748.56;;;20.41
71630;BMP280;59479;51.902;8.212;2023-07-13T03:16:49;100746.00;;;20.41
71630;BMP280;59479;51.902;8.212;2023-07-13T03:19:14;100758.00;;;20.39
71630;BMP280;59479;51.902;8.212;2023-07-13T03:21:40;100750.59;;;20.32
71630;BMP280;59479;51.902;8.212;2023-07-13T03:24:06;100751.78;;;20.23
71630;BMP280;59479;51.902;8.212;2023-07-13T03:26:31;100755.34;;;20.20
71630;BMP280;59479;51.902;8.212;2023-07-13T03:28:57;100757.94;;;20.18
71630;BMP280;59479;51.902;8.212;2023-07-13T03:31:26;100764.88;;;20.15
71630;BMP280;59479;51.902;8.212;2023-07-13T03:33:53;100761.31;;;20.19
71630;BMP280;59479;51.902;8.212;2023-07-13T03:36:23;100757.34;;;20.12
71630;BMP280;59479;51.902;8.212;2023-07-13T03:38:53;100773.72;;;20.06
71630;BMP280;59479;51.902;8.212;2023-07-13T03:41:20;100775.31;;;20.09
71630;BMP280;59479;51.902;8.212;2023-07-13T03:43:46;100773.09;;;20.00
71630;BMP280;59479;51.902;8.212;2023-07-13T03:46:14;100776.53;;;19.99
71630;BMP280;59479;51.902;8.212;2023-07-13T03:48:40;100775.06;;;19.92
71630;BMP280;59479;51.902;8.212;2023-07-13T03:51:08;100776.97;;;19.87
71630;BMP280;59479;51.902;8.212;2023-07-13T03:53:34;100786.06;;;19.94
71630;BMP280;59479;51.902;8.212;2023-07-13T03:55:59;100782.72;;;19.92
71630;BMP280;59479;51.902;8.212;2023-07-13T04:00:52;100780.63;;;19.78
71630;BMP280;59479;51.902;8.212;2023-07-13T04:03:17;100779.13;;;19.73
71630;BMP280;59479;51.902;8.212;2023-07-13T04:05:43;100782.06;;;19.63
71630;BMP280;59479;51.902;8.212;2023-07-13T04:08:08;100788.25;;;19.56
71630;BMP280;59479;51.902;8.212;2023-07-13T04:10:34;100776.09;;;19.62
71630;BMP280;59479;51.902;8.212;2023-07-13T04:12:59;100789.84;;;19.58
71630;BMP280;59479;51.902;8.212;2023-07-13T04:15:24;100783.06;;;19.57
71630;BMP280;59479;51.902;8.212;2023-07-13T04:17:49;100790.84;;;19.54
71630;BMP280;59479;51.902;8.212;2023-07-13T04:20:15;100797.78;;;19.51
71630;BMP280;59479;51.902;8.212;2023-07-13T04:22:40;100793.50;;;19.51
71630;BMP280;59479;51.902;8.212;2023-07-13T04:25:06;100797.00;;;19.47
71630;BMP280;59479;51.902;8.212;2023-07-13T04:27:31;100798.78;;;19.45
71630;BMP280;59479;51.902;8.212;2023-07-13T04:29:57;100792.28;;;19.37
71630;BMP280;59479;51.902;8.212;2023-07-13T04:32:22;100804.09;;;19.39
71630;BMP280;59479;51.902;8.212;2023-07-13T04:34:48;100799.88;;;19.38
71630;BMP280;59479;51.902;8.212;2023-07-13T04:37:17;100806.56;;;19.42
71630;BMP280;59479;51.902;8.212;2023-07-13T04:39:42;100807.44;;;19.41
71630;BMP280;59479;51.902;8.212;2023-07-13T04:42:07;100804.06;;;19.41
71630;BMP280;59479;51.902;8.212;2023-07-13T04:44:33;100804.88;;;19.41
71630;BMP280;59479;51.902;8.212;2023-07-13T04:46:58;100799.69;;;19.44
71630;BMP280;59479;51.902;8.212;2023-07-13T04:49:23;100808.25;;;19.42
71630;BMP280;59479;51.902;8.212;2023-07-13T04:51:49;100807.34;;;19.44
71630;BMP280;59479;51.902;8.212;2023-07-13T04:54:14;100808.88;;;19.48
71630;BMP280;59479;51.902;8.212;2023-07-13T04:56:39;100814.03;;;19.47
71630;BMP280;59479;51.902;8.212;2023-07-13T04:59:05;100814.00;;;19.48
71630;BMP280;59479;51.902;8.212;2023-07-13T05:01:30;100817.53;;;19.44
71630;BMP280;59479;51.902;8.212;2023-07-13T05:03:56;100812.25;;;19.49
71630;BMP280;59479;51.902;8.212;2023-07-13T05:06:22;100818.22;;;19.49
71630;BMP280;59479;51.902;8.212;2023-07-13T05:08:48;100808.69;;;19.54
71630;BMP280;59479;51.902;8.212;2023-07-13T05:11:13;100817.06;;;19.58
71630;BMP280;59479;51.902;8.212;2023-07-13T05:13:38;100814.44;;;19.61
71630;BMP280;59479;51.902;8.212;2023-07-13T05:16:05;100810.84;;;19.66
71630;BMP280;59479;51.902;8.212;2023-07-13T05:18:33;100819.34;;;19.65
71630;BMP280;59479;51.902;8.212;2023-07-13T05:21:05;100816.66;;;19.70
71630;BMP280;59479;51.902;8.212;2023-07-13T05:23:32;100817.25;;;19.78
71630;BMP280;59479;51.902;8.212;2023-07-13T05:25:58;100817.44;;;19.72
71630;BMP280;59479;51.902;8.212;2023-07-13T05:28:23;100825.03;;;19.73
71630;BMP280;59479;51.902;8.212;2023-07-13T05:30:49;100823.59;;;19.66
71630;BMP280;59479;51.902;8.212;2023-07-13T05:33:15;100822.34;;;19.78
71630;BMP280;59479;51.902;8.212;2023-07-13T05:35:41;100822.50;;;19.73
71630;BMP280;59479;51.902;8.212;2023-07-13T05:38:06;100828.25;;;19.78
71630;BMP280;59479;51.902;8.212;2023-07-13T05:40:32;100838.47;;;19.78
71630;BMP280;59479;51.902;8.212;2023-07-13T05:42:57;100831.50;;;19.83
71630;BMP280;59479;51.902;8.212;2023-07-13T05:45:22;100838.84;;;19.68
71630;BMP280;59479;51.902;8.212;2023-07-13T05:47:47;100845.81;;;19.63
71630;BMP280;59479;51.902;8.212;2023-07-13T05:50:13;100850.44;;;19.76
71630;BMP280;59479;51.902;8.212;2023-07-13T05:52:38;100842.78;;;19.76
71630;BMP280;59479;51.902;8.212;2023-07-13T05:55:04;100847.16;;;19.73
71630;BMP280;59479;51.902;8.212;2023-07-13T05:57:30;100849.81;;;19.70
71630;BMP280;59479;51.902;8.212;2023-07-13T05:59:55;100845.34;;;19.76
71630;BMP280;59479;51.902;8.212;2023-07-13T06:02:21;100859.38;;;19.63
71630;BMP280;59479;51.902;8.212;2023-07-13T06:04:46;100866.56;;;19.77
71630;BMP280;59479;51.902;8.212;2023-07-13T06:07:11;100863.94;;;19.79
71630;BMP280;59479;51.902;8.212;2023-07-13T06:09:37;100863.97;;;19.78
71630;BMP280;59479;51.902;8.212;2023-07-13T06:12:03;100862.09;;;19.83
71630;BMP280;59479;51.902;8.212;2023-07-13T06:14:29;100864.63;;;19.84
71630;BMP280;59479;51.902;8.212;2023-07-13T06:16:54;100866.91;;;19.92
71630;BMP280;59479;51.902;8.212;2023-07-13T06:19:19;100867.16;;;19.86
71630;BMP280;59479;51.902;8.212;2023-07-13T06:21:45;100871.91;;;19.95
71630;BMP280;59479;51.902;8.212;2023-07-13T06:24:10;100859.13;;;19.96
71630;BMP280;59479;51.902;8.212;2023-07-13T06:26:35;100864.75;;;20.06
71630;BMP280;59479;51.902;8.212;2023-07-13T06:29:01;100866.81;;;20.19
71630;BMP280;59479;51.902;8.212;2023-07-13T06:31:26;100869.53;;;20.15
71630;BMP280;59479;51.902;8.212;2023-07-13T06:33:51;100872.50;;;20.25
71630;BMP280;59479;51.902;8.212;2023-07-13T06:36:17;100874.06;;;20.07
71630;BMP280;59479;51.902;8.212;2023-07-13T06:38:42;100871.63;;;20.26
71630;BMP280;59479;51.902;8.212;2023-07-13T06:41:07;100873.59;;;20.43
71630;BMP280;59479;51.902;8.212;2023-07-13T06:43:33;100868.00;;;20.56
71630;BMP280;59479;51.902;8.212;2023-07-13T06:45:58;100872.13;;;20.59
71630;BMP280;59479;51.902;8.212;2023-07-13T06:48:24;100873.91;;;20.57
71630;BMP280;59479;51.902;8.212;2023-07-13T06:50:50;100870.75;;;20.50
71630;BMP280;59479;51.902;8.212;2023-07-13T06:53:17;100875.75;;;20.53
71630;BMP280;59479;51.902;8.212;2023-07-13T06:55:43;100866.25;;;20.57
71630;BMP280;59479;51.902;8.212;2023-07-13T06:58:09;100878.22;;;20.56
71630;BMP280;59479;51.902;8.212;2023-07-13T07:00:34;100878.97;;;20.58
71630;BMP280;59479;51.902;8.212;2023-07-13T07:02:59;100880.28;;;20.69
71630;BMP280;59479;51.902;8.212;2023-07-13T07:05:25;100882.78;;;20.71
71630;BMP280;59479;51.902;8.212;2023-07-13T07:07:52;100877.00;;;20.66
71630;BMP280;59479;51.902;8.212;2023-07-13T07:10:18;100874.72;;;20.81
71630;BMP280;59479;51.902;8.212;2023-07-13T07:12:44;100876.03;;;20.91
71630;BMP280;59479;51.902;8.212;2023-07-13T07:15:09;100889.75;;;20.89
71630;BMP280;59479;51.902;8.212;2023-07-13T07:17:35;100886.25;;;20.91
71630;BMP280;59479;51.902;8.212;2023-07-13T07:20:00;100883.97;;;20.84
71630;BMP280;59479;51.902;8.212;2023-07-13T07:22:25;100892.19;;;20.92
71630;BMP280;59479;51.902;8.212;2023-07-13T07:24:53;100895.47;;;20.95
71630;BMP280;59479;51.902;8.212;2023-07-13T07:27:18;100884.97;;;21.03
71630;BMP280;59479;51.902;8.212;2023-07-13T07:29:43;100887.22;;;21.10
71630;BMP280;59479;51.902;8.212;2023-07-13T07:32:09;100894.22;;;21.26
71630;BMP280;59479;51.902;8.212;2023-07-13T07:34:34;100898.81;;;21.18
71630;BMP280;59479;51.902;8.212;2023-07-13T07:37:00;100895.38;;;21.19
71630;BMP280;59479;51.902;8.212;2023-07-13T07:39:26;100884.00;;;21.26
71630;BMP280;59479;51.902;8.212;2023-07-13T07:41:51;100891.69;;;21.26
71630;BMP280;59479;51.902;8.212;2023-07-13T07:44:17;100890.91;;;21.24
71630;BMP280;59479;51.902;8.212;2023-07-13T07:46:42;100889.88;;;21.28
71630;BMP280;59479;51.902;8.212;2023-07-13T07:49:07;100891.44;;;21.32
71630;BMP280;59479;51.902;8.212;2023-07-13T07:51:33;100892.22;;;21.34
71630;BMP280;59479;51.902;8.212;2023-07-13T07:53:58;100884.97;;;21.45
71630;BMP280;59479;51.902;8.212;2023-07-13T07:56:23;100883.06;;;21.50
71630;BMP280;59479;51.902;8.212;2023-07-13T07:58:49;100885.06;;;21.42
71630;BMP280;59479;51.902;8.212;2023-07-13T08:01:14;100890.94;;;21.46
71630;BMP280;59479;51.902;8.212;2023-07-13T08:03:41;100892.19;;;21.55
71630;BMP280;59479;51.902;8.212;2023-07-13T08:06:06;100894.69;;;21.57
71630;BMP280;59479;51.902;8.212;2023-07-13T08:08:31;100895.66;;;21.54
71630;BMP280;59479;51.902;8.212;2023-07-13T08:10:57;100899.06;;;21.55
71630;BMP280;59479;51.902;8.212;2023-07-13T08:13:22;100904.69;;;21.63
71630;BMP280;59479;51.902;8.212;2023-07-13T08:15:47;100893.88;;;21.56
71630;BMP280;59479;51.902;8.212;2023-07-13T08:18:14;100896.25;;;21.61
71630;BMP280;59479;51.902;8.212;2023-07-13T08:20:40;100898.81;;;21.61
71630;BMP280;59479;51.902;8.212;2023-07-13T08:23:06;100892.78;;;21.62
71630;BMP280;59479;51.902;8.212;2023-07-13T08:25:34;100882.78;;;21.77
71630;BMP280;59479;51.902;8.212;2023-07-13T08:27:59;100883.50;;;21.81
71630;BMP280;59479;51.902;8.212;2023-07-13T08:30:25;100890.84;;;21.88
71630;BMP280;59479;51.902;8.212;2023-07-13T08:32:50;100890.66;;;22.12
71630;BMP280;59479;51.902;8.212;2023-07-13T08:35:15;100891.09;;;22.22
71630;BMP280;59479;51.902;8.212;2023-07-13T08:37:42;100896.22;;;22.22
71630;BMP280;59479;51.902;8.212;2023-07-13T08:40:09;100890.03;;;22.27
71630;BMP280;59479;51.902;8.212;2023-07-13T08:45:55;100891.25;;;22.37
71630;BMP280;59479;51.902;8.212;2023-07-13T08:48:25;100892.69;;;22.44
71630;BMP280;59479;51.902;8.212;2023-07-13T08:50:58;100895.47;;;22.58
71630;BMP280;59479;51.902;8.212;2023-07-13T08:53:30;100894.69;;;22.56
71630;BMP280;59479;51.902;8.212;2023-07-13T08:55:59;100898.50;;;22.66
71630;BMP280;59479;51.902;8.212;2023-07-13T08:58:28;100895.34;;;22.79
71630;BMP280;59479;51.902;8.212;2023-07-13T09:01:16;100896.50;;;22.72
71630;BMP280;59479;51.902;8.212;2023-07-13T09:04:11;100902.66;;;22.68
71630;BMP280;59479;51.902;8.212;2023-07-13T09:15:41;100903.06;;;22.59
71630;BMP280;59479;51.902;8.212;2023-07-13T09:18:19;100888.94;;;22.87
71630;BMP280;59479;51.902;8.212;2023-07-13T09:20:57;100883.59;;;23.10
71630;BMP280;59479;51.902;8.212;2023-07-13T09:23:28;100879.47;;;23.08
71630;BMP280;59479;51.902;8.212;2023-07-13T09:28:45;100864.53;;;23.34
71630;BMP280;59479;51.902;8.212;2023-07-13T09:31:36;100868.97;;;23.30
71630;BMP280;59479;51.902;8.212;2023-07-13T09:34:40;100871.19;;;23.20
71630;BMP280;59479;51.902;8.212;2023-07-13T09:37:05;100872.22;;;23.34
71630;BMP280;59479;51.902;8.212;2023-07-13T09:39:39;100887.13;;;23.26
71630;BMP280;59479;51.902;8.212;2023-07-13T09:42:12;100876.56;;;23.32
71630;BMP280;59479;51.902;8.212;2023-07-13T09:44:55;100869.78;;;23.31
71630;BMP280;59479;51.902;8.212;2023-07-13T09:47:24;100880.72;;;23.34
71630;BMP280;59479;51.902;8.212;2023-07-13T09:50:03;100871.81;;;23.41
71630;BMP280;59479;51.902;8.212;2023-07-13T09:52:40;100880.25;;;23.62
71630;BMP280;59479;51.902;8.212;2023-07-13T09:57:54;100880.25;;;23.62
71630;BMP280;59479;51.902;8.212;2023-07-13T10:00:28;100879.50;;;23.76
71630;BMP280;59479;51.902;8.212;2023-07-13T10:03:22;100880.88;;;23.48
71630;BMP280;59479;51.902;8.212;2023-07-13T10:05:49;100877.59;;;23.63
71630;BMP280;59479;51.902;8.212;2023-07-13T10:10:45;100883.50;;;23.65
71630;BMP280;59479;51.902;8.212;2023-07-13T10:13:42;100889.16;;;23.88
71630;BMP280;59479;51.902;8.212;2023-07-13T10:16:08;100889.91;;;24.07
71630;BMP280;59479;51.902;8.212;2023-07-13T10:21:52;100895.34;;;24.01
71630;BMP280;59479;51.902;8.212;2023-07-13T10:24:23;100882.34;;;24.04
71630;BMP280;59479;51.902;8.212;2023-07-13T10:29:30;100889.09;;;24.22
71630;BMP280;59479;51.902;8.212;2023-07-13T10:31:58;100900.59;;;24.32
71630;BMP280;59479;51.902;8.212;2023-07-13T10:34:23;100908.06;;;24.36
71630;BMP280;59479;51.902;8.212;2023-07-13T10:36:49;100902.41;;;24.30
71630;BMP280;59479;51.902;8.212;2023-07-13T10:39:26;100897.88;;;24.35
71630;BMP280;59479;51.902;8.212;2023-07-13T10:41:59;100893.03;;;24.29
71630;BMP280;59479;51.902;8.212;2023-07-13T10:44:29;100894.09;;;24.25
71630;BMP280;59479;51.902;8.212;2023-07-13T10:46:56;100905.72;;;24.32
71630;BMP280;59479;51.902;8.212;2023-07-13T10:49:22;100903.94;;;24.17
71630;BMP280;59479;51.902;8.212;2023-07-13T10:51:48;100903.16;;;24.32
71630;BMP280;59479;51.902;8.212;2023-07-13T10:59:38;100911.16;;;24.26
71630;BMP280;59479;51.902;8.212;2023-07-13T11:04:44;100910.88;;;24.15
71630;BMP280;59479;51.902;8.212;2023-07-13T11:07:22;100904.09;;;24.31
71630;BMP280;59479;51.902;8.212;2023-07-13T11:09:53;100906.50;;;24.17
71630;BMP280;59479;51.902;8.212;2023-07-13T11:17:36;100908.03;;;24.04
71630;BMP280;59479;51.902;8.212;2023-07-13T11:22:46;100899.22;;;24.25
71630;BMP280;59479;51.902;8.212;2023-07-13T11:25:31;100897.28;;;24.13
71630;BMP280;59479;51.902;8.212;2023-07-13T11:33:53;100894.16;;;24.40
71630;BMP280;59479;51.902;8.212;2023-07-13T11:36:21;100889.06;;;24.55
71630;BMP280;59479;51.902;8.212;2023-07-13T11:39:02;100892.31;;;24.59
71630;BMP280;59479;51.902;8.212;2023-07-13T11:42:04;100886.31;;;24.58
71630;BMP280;59479;51.902;8.212;2023-07-13T11:44:34;100900.31;;;24.53
71630;BMP280;59479;51.902;8.212;2023-07-13T11:47:14;100897.13;;;24.33
71630;BMP280;59479;51.902;8.212;2023-07-13T11:49:49;100899.22;;;24.25
71630;BMP280;59479;51.902;8.212;2023-07-13T11:52:35;100897.13;;;24.33
71630;BMP280;59479;51.902;8.212;2023-07-13T11:55:16;100900.13;;;24.41
71630;BMP280;59479;51.902;8.212;2023-07-13T11:57:50;100900.72;;;24.46
71630;BMP280;59479;51.902;8.212;2023-07-13T12:00:23;100902.44;;;24.45
71630;BMP280;59479;51.902;8.212;2023-07-13T12:02:51;100907.59;;;24.45
71630;BMP280;59479;51.902;8.212;2023-07-13T12:05:19;100902.44;;;24.45
71630;BMP280;59479;51.902;8.212;2023-07-13T12:07:46;100909.50;;;24.42
71630;BMP280;59479;51.902;8.212;2023-07-13T12:10:19;100904.63;;;24.20
71630;BMP280;59479;51.902;8.212;2023-07-13T12:12:58;100906.19;;;24.40
71630;BMP280;59479;51.902;8.212;2023-07-13T12:18:02;100899.09;;;24.60
71630;BMP280;59479;51.902;8.212;2023-07-13T12:20:37;100886.72;;;24.66
71630;BMP280;59479;51.902;8.212;2023-07-13T12:23:05;100883.19;;;24.69
71630;BMP280;59479;51.902;8.212;2023-07-13T12:25:31;100896.88;;;24.69
71630;BMP280;59479;51.902;8.212;2023-07-13T12:27:56;100893.94;;;24.60
71630;BMP280;59479;51.902;8.212;2023-07-13T12:33:11;100907.97;;;24.70
71630;BMP280;59479;51.902;8.212;2023-07-13T12:35:44;100909.41;;;24.75
71630;BMP280;59479;51.902;8.212;2023-07-13T12:38:11;100901.19;;;24.84
71630;BMP280;59479;51.902;8.212;2023-07-13T12:40:37;100894.16;;;25.03
71630;BMP280;59479;51.902;8.212;2023-07-13T12:43:09;100891.50;;;25.20
71630;BMP280;59479;51.902;8.212;2023-07-13T12:45:58;100884.44;;;25.38
71630;BMP280;59479;51.902;8.212;2023-07-13T12:48:24;100888.47;;;25.42
71630;BMP280;59479;51.902;8.212;2023-07-13T12:50:50;100891.38;;;25.36
71630;BMP280;59479;51.902;8.212;2023-07-13T12:53:22;100889.56;;;25.38
71630;BMP280;59479;51.902;8.212;2023-07-13T12:55:51;100881.09;;;25.36
71630;BMP280;59479;51.902;8.212;2023-07-13T12:58:42;100886.38;;;25.64
71630;BMP280;59479;51.902;8.212;2023-07-13T13:01:09;100894.25;;;25.61
71630;BMP280;59479;51.902;8.212;2023-07-13T13:03:38;100893.94;;;25.81
71630;BMP280;59479;51.902;8.212;2023-07-13T13:08:35;100892.44;;;25.63
71630;BMP280;59479;51.902;8.212;2023-07-13T13:11:02;100892.81;;;25.71
71630;BMP280;59479;51.902;8.212;2023-07-13T13:13:27;100891.38;;;25.81
71630;BMP280;59479;51.902;8.212;2023-07-13T13:15:53;100885.91;;;26.01
71630;BMP280;59479;51.902;8.212;2023-07-13T13:18:21;100889.09;;;25.90
71630;BMP280;59479;51.902;8.212;2023-07-13T13:20:47;100893.72;;;25.99
71630;BMP280;59479;51.902;8.212;2023-07-13T13:23:14;100902.00;;;26.04
71630;BMP280;59479;51.902;8.212;2023-07-13T13:25:44;100896.53;;;25.95
71630;BMP280;59479;51.902;8.212;2023-07-13T13:28:15;100906.56;;;25.85
71630;BMP280;59479;51.902;8.212;2023-07-13T13:30:42;100911.63;;;25.87
71630;BMP280;59479;51.902;8.212;2023-07-13T13:33:14;100913.91;;;25.91
71630;BMP280;59479;51.902;8.212;2023-07-13T13:35:40;100922.66;;;25.75
71630;BMP280;59479;51.902;8.212;2023-07-13T13:40:40;100917.66;;;25.72
71630;BMP280;59479;51.902;8.212;2023-07-13T13:43:17;100921.53;;;25.79
71630;BMP280;59479;51.902;8.212;2023-07-13T13:45:44;100919.50;;;25.70
71630;BMP280;59479;51.902;8.212;2023-07-13T13:48:18;100937.06;;;25.77
71630;BMP280;59479;51.902;8.212;2023-07-13T13:50:52;100936.81;;;25.82
71630;BMP280;59479;51.902;8.212;2023-07-13T13:53:18;100954.53;;;25.57
71630;BMP280;59479;51.902;8.212;2023-07-13T13:55:43;100997.38;;;25.28
71630;BMP280;59479;51.902;8.212;2023-07-13T13:58:09;101004.19;;;25.13
71630;BMP280;59479;51.902;8.212;2023-07-13T14:00:37;100989.13;;;24.91
71630;BMP280;59479;51.902;8.212;2023-07-13T14:03:02;100984.19;;;25.03
71630;BMP280;59479;51.902;8.212;2023-07-13T14:05:28;100985.69;;;25.07
71630;BMP280;59479;51.902;8.212;2023-07-13T14:07:55;100976.63;;;25.00
71630;BMP280;59479;51.902;8.212;2023-07-13T14:10:22;100974.06;;;25.00
71630;BMP280;59479;51.902;8.212;2023-07-13T14:12:53;100981.88;;;24.98
71630;BMP280;59479;51.902;8.212;2023-07-13T14:15:25;100974.50;;;24.91
71630;BMP280;59479;51.902;8.212;2023-07-13T14:17:51;100980.66;;;24.89
71630;BMP280;59479;51.902;8.212;2023-07-13T14:20:19;100983.13;;;24.90
71630;BMP280;59479;51.902;8.212;2023-07-13T14:22:45;100982.53;;;24.85
71630;BMP280;59479;51.902;8.212;2023-07-13T14:25:12;100986.41;;;24.77
71630;BMP280;59479;51.902;8.212;2023-07-13T14:27:38;100991.22;;;24.67
71630;BMP280;59479;51.902;8.212;2023-07-13T14:30:12;101006.44;;;24.38
71630;BMP280;59479;51.902;8.212;2023-07-13T14:32:40;101016.50;;;24.09
71630;BMP280;59479;51.902;8.212;2023-07-13T14:35:06;101041.19;;;23.76
71630;BMP280;59479;51.902;8.212;2023-07-13T14:37:32;101044.41;;;23.45
71630;BMP280;59479;51.902;8.212;2023-07-13T14:39:57;101053.47;;;23.15
71630;BMP280;59479;51.902;8.212;2023-07-13T14:42:23;101062.25;;;22.91
71630;BMP280;59479;51.902;8.212;2023-07-13T14:44:48;101069.13;;;22.89
71630;BMP280;59479;51.902;8.212;2023-07-13T14:47:17;101073.81;;;22.80
71630;BMP280;59479;51.902;8.212;2023-07-13T14:49:44;101070.56;;;22.77
71630;BMP280;59479;51.902;8.212;2023-07-13T14:52:21;101082.72;;;22.72
71630;BMP280;59479;51.902;8.212;2023-07-13T14:54:51;101081.59;;;22.59
71630;BMP280;59479;51.902;8.212;2023-07-13T14:57:18;101084.00;;;22.42
71630;BMP280;59479;51.902;8.212;2023-07-13T14:59:47;101078.56;;;22.30
71630;BMP280;59479;51.902;8.212;2023-07-13T15:02:16;101081.88;;;22.32
71630;BMP280;59479;51.902;8.212;2023-07-13T15:04:43;101076.19;;;22.45